Time;durP1;ratioP1;P1;durP2;ratioP2;P2;SDS_P1;SDS_P2;PMS_P1;PMS_P2;Temp;Humidity;BMP_temperature;BMP_pressure;BME280_temperature;BME280_humidity;BME280_pressure;Samples;Min_cycle;Max_cycle;Signal;HPM_P1;HPM_P2
2021/12/19 00:02:38;;;;;;;23.38;12.50;;;7.80;99.90;;;;;;5055361;28;20197;-78
2021/12/19 00:10:23;;;;;;;33.95;14.27;;;7.90;99.90;;;;;;5055020;28;20653;-78
2021/12/19 00:12:51;;;;;;;33.17;14.65;;;7.90;99.90;;;;;;5054810;28;20179;-78
2021/12/19 00:15:16;;;;;;;34.22;14.27;;;7.50;99.90;;;;;;5053472;28;20620;-78
2021/12/19 00:17:42;;;;;;;31.83;15.48;;;7.50;99.90;;;;;;5054690;28;20191;-78
2021/12/19 00:20:08;;;;;;;31.02;14.65;;;7.50;99.90;;;;;;5054443;28;20540;-78
2021/12/19 00:22:33;;;;;;;34.75;14.57;;;7.70;99.90;;;;;;5054266;28;20175;-78
2021/12/19 00:24:59;;;;;;;34.13;14.20;;;7.70;99.90;;;;;;5054482;28;20186;-78
2021/12/19 00:27:25;;;;;;;29.08;13.50;;;7.80;99.90;;;;;;5054427;28;20660;-78
2021/12/19 00:29:50;;;;;;;28.17;12.82;;;7.70;99.90;;;;;;5054473;28;20230;-78
2021/12/19 00:32:16;;;;;;;33.97;13.40;;;7.60;99.90;;;;;;5053992;28;20178;-76
2021/12/19 00:34:42;;;;;;;32.63;12.95;;;7.60;99.90;;;;;;5054327;28;20208;-76
2021/12/19 00:37:08;;;;;;;26.50;12.02;;;7.70;99.90;;;;;;5054125;28;20546;-76
2021/12/19 00:39:33;;;;;;;24.20;11.45;;;7.30;99.90;;;;;;5052670;28;20171;-76
2021/12/19 00:41:59;;;;;;;32.90;12.25;;;7.20;99.90;;;;;;5054238;28;20175;-76
2021/12/19 00:44:26;;;;;;;22.00;10.13;;;7.30;99.90;;;;;;5054150;28;20171;-76
2021/12/19 00:47:03;;;;;;;27.50;12.65;;;7.60;99.90;;;;;;5052598;28;20604;-76
2021/12/19 00:49:30;;;;;;;25.48;11.30;;;7.60;99.90;;;;;;5053699;28;20159;-76
2021/12/19 00:51:56;;;;;;;22.70;10.52;;;7.60;99.90;;;;;;5053769;28;20159;-76
2021/12/19 00:54:21;;;;;;;29.40;10.88;;;7.70;99.90;;;;;;5053846;28;20700;-76
2021/12/19 00:56:48;;;;;;;24.00;11.60;;;7.80;99.90;;;;;;5053950;28;20172;-76
2021/12/19 00:59:15;;;;;;;19.70;11.20;;;7.60;99.90;;;;;;5053716;28;20155;-76
2021/12/19 01:01:42;;;;;;;22.40;10.63;;;7.70;99.90;;;;;;5053597;28;20167;-76
2021/12/19 01:04:11;;;;;;;24.50;12.10;;;7.60;99.90;;;;;;5053713;28;20251;-76
2021/12/19 01:06:39;;;;;;;26.25;11.25;;;7.50;99.90;;;;;;5053728;28;20561;-76
2021/12/19 01:09:05;;;;;;;18.92;10.32;;;7.70;99.90;;;;;;5053691;28;20277;-76
2021/12/19 01:11:31;;;;;;;23.25;11.48;;;7.70;99.90;;;;;;5053568;28;20210;-76
2021/12/19 01:13:57;;;;;;;21.02;11.38;;;7.80;99.90;;;;;;5053381;28;20582;-76
2021/12/19 01:16:23;;;;;;;27.27;11.23;;;8.10;99.90;;;;;;5051990;28;20171;-76
2021/12/19 01:18:49;;;;;;;23.90;10.50;;;8.20;99.90;;;;;;5053393;28;20553;-76
2021/12/19 01:21:15;;;;;;;26.75;12.68;;;8.10;99.90;;;;;;5053398;28;20179;-76
2021/12/19 01:23:41;;;;;;;25.00;12.23;;;8.10;99.90;;;;;;5053345;28;20167;-77
2021/12/19 01:26:06;;;;;;;26.63;10.68;;;8.40;99.90;;;;;;5052308;28;20210;-76
2021/12/19 01:28:32;;;;;;;23.02;11.70;;;8.40;99.90;;;;;;5053266;28;20190;-76
2021/12/19 01:30:58;;;;;;;27.60;11.98;;;8.10;99.90;;;;;;5053135;28;20265;-76
2021/12/19 01:33:23;;;;;;;21.88;11.27;;;8.20;99.90;;;;;;5052864;28;20193;-76
2021/12/19 01:35:49;;;;;;;31.13;11.38;;;8.10;99.90;;;;;;5053232;28;20168;-77
2021/12/19 01:38:15;;;;;;;38.88;13.57;;;8.30;99.90;;;;;;5053162;28;20186;-76
2021/12/19 01:40:40;;;;;;;26.35;12.63;;;8.20;99.90;;;;;;5053035;28;20170;-76
2021/12/19 01:43:06;;;;;;;29.55;12.93;;;8.00;99.90;;;;;;5053180;28;20168;-76
2021/12/19 01:45:35;;;;;;;22.25;11.63;;;8.00;99.90;;;;;;5052968;28;20577;-76
2021/12/19 01:48:04;;;;;;;28.88;13.32;;;8.10;99.90;;;;;;5052670;28;20198;-76
2021/12/19 01:50:31;;;;;;;25.55;11.95;;;8.10;99.90;;;;;;5053074;28;20190;-76
2021/12/19 01:52:57;;;;;;;36.83;15.45;;;8.00;99.90;;;;;;5051544;28;20167;-76
2021/12/19 01:55:23;;;;;;;33.47;13.07;;;8.10;99.90;;;;;;5053444;28;20206;-76
2021/12/19 01:57:49;;;;;;;31.92;13.77;;;8.20;99.90;;;;;;5053052;28;20687;-76
2021/12/19 02:00:23;;;;;;;33.75;14.20;;;8.50;99.90;;;;;;5053381;28;20507;-76
2021/12/19 02:02:49;;;;;;;36.30;13.25;;;8.50;99.90;;;;;;5053080;28;20258;-76
2021/12/19 02:05:15;;;;;;;25.85;12.15;;;8.50;99.90;;;;;;5053420;28;20195;-76
2021/12/19 02:07:46;;;;;;;25.98;11.82;;;8.40;99.90;;;;;;5053023;28;20698;-76
2021/12/19 02:10:14;;;;;;;25.33;10.82;;;8.30;99.90;;;;;;5068054;28;20168;-76
2021/12/19 02:12:40;;;;;;;22.95;10.80;;;8.30;99.90;;;;;;5074997;28;20171;-78
2021/12/19 02:15:06;;;;;;;16.52;9.57;;;8.40;99.90;;;;;;5074946;28;20182;-78
2021/12/19 02:17:32;;;;;;;17.20;8.82;;;8.30;99.90;;;;;;5075440;28;20183;-76
2021/12/19 02:19:58;;;;;;;17.73;8.80;;;8.30;99.90;;;;;;5067864;28;20199;-76
2021/12/19 02:22:23;;;;;;;18.23;9.70;;;8.10;99.90;;;;;;5057527;28;20174;-76
2021/12/19 02:24:49;;;;;;;19.00;9.55;;;8.30;99.90;;;;;;5055707;28;20667;-77
2021/12/19 02:27:14;;;;;;;16.00;8.68;;;8.40;99.90;;;;;;5054249;28;20717;-77
2021/12/19 02:29:40;;;;;;;14.60;7.80;;;8.30;99.90;;;;;;5055687;28;20163;-77
2021/12/19 02:32:06;;;;;;;13.75;8.52;;;8.30;99.90;;;;;;5054960;28;20194;-77
2021/12/19 02:34:40;;;;;;;14.40;7.95;;;8.20;99.90;;;;;;5055194;28;20164;-77
2021/12/19 02:37:19;;;;;;;16.90;8.63;;;8.20;99.90;;;;;;5054291;28;20170;-77
2021/12/19 02:50:26;;;;;;;15.68;8.45;;;8.90;99.90;;;;;;5055729;28;20182;-78
2021/12/19 02:52:52;;;;;;;20.33;8.70;;;8.90;99.90;;;;;;5055748;28;20163;-78
2021/12/19 02:55:18;;;;;;;18.60;8.50;;;8.50;99.90;;;;;;5052729;28;20225;-79
2021/12/19 02:57:45;;;;;;;15.68;8.32;;;8.30;99.90;;;;;;5051952;28;20190;-78
2021/12/19 03:00:13;;;;;;;15.50;8.48;;;8.20;99.90;;;;;;5052196;28;20186;-80
2021/12/19 03:02:39;;;;;;;16.65;8.77;;;8.40;99.90;;;;;;5052119;28;20163;-78
2021/12/19 03:05:06;;;;;;;14.75;8.82;;;8.40;99.90;;;;;;5056573;28;20620;-77
2021/12/19 03:07:32;;;;;;;18.33;8.80;;;8.60;99.90;;;;;;5067542;28;20202;-78
2021/12/19 03:10:21;;;;;;;21.77;9.13;;;8.60;99.90;;;;;;5064216;28;20168;-78
2021/12/19 03:18:12;;;;;;;19.23;9.00;;;8.60;99.90;;;;;;5069258;28;20248;-77
2021/12/19 03:20:41;;;;;;;15.55;7.93;;;8.70;99.90;;;;;;5062591;28;20175;-78
2021/12/19 03:23:08;;;;;;;18.95;8.95;;;8.60;99.90;;;;;;5058428;28;20174;-78
2021/12/19 03:25:34;;;;;;;21.70;9.45;;;8.60;99.90;;;;;;5061134;28;20209;-78
2021/12/19 03:28:02;;;;;;;24.55;9.40;;;8.60;99.90;;;;;;5051884;28;20191;-78
2021/12/19 03:30:28;;;;;;;21.90;9.30;;;8.80;99.90;;;;;;5051620;28;20624;-78
2021/12/19 03:32:54;;;;;;;23.63;8.98;;;9.00;99.90;;;;;;5051662;28;20185;-78
2021/12/19 03:35:20;;;;;;;18.38;8.82;;;8.90;99.90;;;;;;5051926;28;20231;-78
2021/12/19 03:37:47;;;;;;;22.55;9.18;;;8.90;99.90;;;;;;5051545;28;20183;-78
2021/12/19 03:40:21;;;;;;;20.13;9.25;;;8.90;99.90;;;;;;5051561;28;20164;-78
2021/12/19 03:42:50;;;;;;;18.98;9.43;;;8.80;99.90;;;;;;5052124;28;20174;-78
2021/12/19 03:45:21;;;;;;;22.52;9.38;;;8.90;99.90;;;;;;5051296;28;20628;-78
2021/12/19 03:47:48;;;;;;;17.20;8.73;;;9.00;99.90;;;;;;5051511;28;20671;-78
2021/12/19 03:50:18;;;;;;;19.13;9.15;;;9.00;99.90;;;;;;5053328;28;20194;-78
2021/12/19 03:52:44;;;;;;;22.00;9.45;;;9.20;99.90;;;;;;5053539;28;20207;-78
2021/12/19 03:55:09;;;;;;;23.13;10.20;;;9.20;99.90;;;;;;5053457;28;20252;-78
2021/12/19 03:57:35;;;;;;;17.55;8.95;;;9.20;99.90;;;;;;5054843;28;20191;-78
2021/12/19 04:00:03;;;;;;;18.25;8.57;;;9.30;99.90;;;;;;5054906;28;20163;-78
2021/12/19 04:02:29;;;;;;;15.25;8.43;;;9.20;99.90;;;;;;5054531;28;20259;-78
2021/12/19 04:04:57;;;;;;;20.80;8.68;;;9.00;99.90;;;;;;5054787;28;20265;-79
2021/12/19 04:07:23;;;;;;;20.25;8.30;;;9.00;99.90;;;;;;5053075;28;20569;-78
2021/12/19 04:09:49;;;;;;;17.38;8.48;;;9.00;99.90;;;;;;5053581;28;20269;-78
2021/12/19 04:12:16;;;;;;;24.60;9.77;;;9.10;99.90;;;;;;5054884;28;20671;-78
2021/12/19 04:14:42;;;;;;;20.50;8.65;;;9.00;99.90;;;;;;5054987;28;20163;-78
2021/12/19 04:17:08;;;;;;;18.05;8.45;;;9.10;99.90;;;;;;5054428;28;20667;-78
2021/12/19 04:19:34;;;;;;;16.25;8.48;;;9.00;99.90;;;;;;5054430;28;20178;-78
2021/12/19 04:22:00;;;;;;;18.52;9.00;;;9.10;99.90;;;;;;5054984;28;20163;-78
2021/12/19 04:24:26;;;;;;;15.93;8.23;;;9.00;99.90;;;;;;5054079;28;20640;-78
2021/12/19 04:26:53;;;;;;;14.95;6.97;;;9.20;99.90;;;;;;5054210;28;20290;-78
2021/12/19 04:29:19;;;;;;;12.38;6.68;;;9.10;99.90;;;;;;5054620;28;20620;-78
2021/12/19 04:31:44;;;;;;;11.25;6.35;;;9.00;99.90;;;;;;5054672;28;20183;-78
2021/12/19 04:34:12;;;;;;;17.67;7.80;;;9.10;99.90;;;;;;5054302;28;20561;-79
2021/12/19 04:36:42;;;;;;;17.05;8.35;;;9.20;99.90;;;;;;5054398;28;20623;-79
2021/12/19 04:41:58;;;;;;;16.10;8.23;;;9.10;99.90;;;;;;5054446;28;20220;-79
2021/12/19 05:01:09;;;;;;;13.98;6.93;;;9.10;99.90;;;;;;5069555;28;20187;-78
2021/12/19 05:06:33;;;;;;;14.95;6.70;;;8.90;99.90;;;;;;5065003;28;20219;-78
2021/12/19 05:14:47;;;;;;;19.05;7.80;;;8.70;99.90;;;;;;5063095;28;20176;-79
2021/12/19 05:17:19;;;;;;;20.27;8.13;;;8.80;99.90;;;;;;5053262;28;20206;-79
2021/12/19 05:19:51;;;;;;;20.42;8.00;;;8.90;99.90;;;;;;5053474;28;20573;-78
2021/12/19 05:22:18;;;;;;;15.77;7.63;;;8.90;99.90;;;;;;5053090;28;20175;-79
2021/12/19 05:24:49;;;;;;;18.75;8.02;;;8.70;99.90;;;;;;5053028;28;20278;-79
2021/12/19 05:27:14;;;;;;;16.63;7.93;;;8.80;99.90;;;;;;5052871;28;20202;-78
2021/12/19 05:29:40;;;;;;;18.60;7.63;;;8.70;99.90;;;;;;5053322;28;20206;-78
2021/12/19 05:32:07;;;;;;;23.80;8.82;;;8.80;99.90;;;;;;5052205;28;20171;-78
2021/12/19 05:34:33;;;;;;;14.20;8.40;;;9.00;99.90;;;;;;5053370;28;20166;-79
2021/12/19 05:45:13;;;;;;;26.73;9.23;;;8.90;99.90;;;;;;5053180;28;20581;-79
2021/12/19 05:47:40;;;;;;;27.33;9.32;;;9.10;99.90;;;;;;5052219;28;20206;-79
2021/12/19 05:50:07;;;;;;;30.95;9.43;;;9.10;99.90;;;;;;5052952;28;20206;-78
2021/12/19 05:52:32;;;;;;;22.38;9.90;;;8.90;99.90;;;;;;5064688;28;20227;-78
2021/12/19 05:54:58;;;;;;;22.75;9.50;;;9.00;99.90;;;;;;5073805;28;20174;-79
2021/12/19 05:57:24;;;;;;;33.00;10.82;;;9.00;99.90;;;;;;5063824;28;20179;-78
2021/12/19 05:59:50;;;;;;;27.20;10.07;;;9.00;99.90;;;;;;5057710;28;20175;-78
2021/12/19 06:02:16;;;;;;;28.25;11.13;;;9.10;99.90;;;;;;5055294;28;20167;-78
2021/12/19 06:04:42;;;;;;;30.13;11.10;;;8.80;99.90;;;;;;5057936;28;20170;-78
2021/12/19 06:07:08;;;;;;;40.60;11.75;;;8.70;99.90;;;;;;5058057;28;20210;-78
2021/12/19 06:09:34;;;;;;;41.60;12.65;;;8.80;99.90;;;;;;5055239;28;20535;-79
2021/12/19 06:12:00;;;;;;;28.20;11.52;;;8.90;99.90;;;;;;5055964;28;20168;-78
2021/12/19 06:14:31;;;;;;;35.13;11.30;;;8.90;99.90;;;;;;5053062;28;20181;-78
2021/12/19 06:17:02;;;;;;;24.73;10.63;;;9.00;99.90;;;;;;5052861;28;20163;-78
2021/12/19 06:19:29;;;;;;;33.85;11.02;;;9.00;99.90;;;;;;5055798;28;20220;-80
2021/12/19 06:21:55;;;;;;;33.55;11.57;;;8.90;99.90;;;;;;5054710;28;20670;-79
2021/12/19 06:24:20;;;;;;;42.92;12.45;;;8.70;99.90;;;;;;5055607;28;20171;-79
2021/12/19 06:26:46;;;;;;;30.50;11.93;;;8.60;99.90;;;;;;5055068;28;20202;-79
2021/12/19 06:29:13;;;;;;;35.88;11.93;;;8.40;99.90;;;;;;5053957;28;20240;-79
2021/12/19 06:31:38;;;;;;;42.83;13.52;;;8.50;99.90;;;;;;5056596;28;20250;-78
2021/12/19 06:34:04;;;;;;;42.35;13.25;;;8.40;99.90;;;;;;5055997;28;20718;-78
2021/12/19 06:36:30;;;;;;;34.17;12.32;;;8.40;99.90;;;;;;5055991;28;20159;-78
2021/12/19 06:38:55;;;;;;;41.17;13.13;;;8.40;99.90;;;;;;5056744;28;20596;-78
2021/12/19 06:41:21;;;;;;;39.47;12.98;;;8.40;99.90;;;;;;5058549;28;20175;-78
2021/12/19 06:43:47;;;;;;;31.00;12.38;;;8.50;99.90;;;;;;5052081;28;20167;-78
2021/12/19 06:46:13;;;;;;;48.78;14.30;;;8.40;99.90;;;;;;5052132;28;20559;-78
2021/12/19 06:48:38;;;;;;;42.63;14.43;;;8.40;99.90;;;;;;5052230;28;20282;-78
2021/12/19 06:51:04;;;;;;;41.45;12.90;;;8.50;99.90;;;;;;5052386;28;20254;-79
2021/12/19 06:53:30;;;;;;;31.40;12.40;;;8.50;99.90;;;;;;5051945;28;20692;-79
2021/12/19 06:55:56;;;;;;;54.75;14.15;;;8.40;99.90;;;;;;5052092;28;20171;-78
2021/12/19 06:58:22;;;;;;;38.08;11.43;;;8.50;99.90;;;;;;5050940;28;20229;-79
2021/12/19 07:00:48;;;;;;;40.63;12.95;;;8.70;99.90;;;;;;5052107;28;20167;-80
2021/12/19 07:03:15;;;;;;;34.85;12.13;;;8.60;99.90;;;;;;5052060;28;20831;-82
2021/12/19 07:05:41;;;;;;;40.45;12.82;;;8.50;99.90;;;;;;5050071;28;20178;-78
2021/12/19 07:08:06;;;;;;;42.58;13.75;;;8.40;99.90;;;;;;5050044;28;20195;-80
2021/12/19 07:10:32;;;;;;;33.38;11.65;;;8.40;99.90;;;;;;5051182;28;20168;-79
2021/12/19 07:12:58;;;;;;;43.33;13.35;;;8.40;99.90;;;;;;5052180;28;21171;-79
2021/12/19 07:15:24;;;;;;;51.28;14.00;;;8.60;99.90;;;;;;5051603;28;20306;-78
2021/12/19 07:17:51;;;;;;;40.50;11.15;;;8.50;99.90;;;;;;5052014;28;20187;-79
2021/12/19 07:20:17;;;;;;;43.95;13.70;;;8.40;99.90;;;;;;5051829;28;20164;-78
2021/12/19 07:22:43;;;;;;;47.33;13.63;;;8.60;99.90;;;;;;5051476;28;20167;-78
2021/12/19 07:25:09;;;;;;;37.60;11.82;;;8.40;99.90;;;;;;5053410;28;20256;-78
2021/12/19 07:27:35;;;;;;;42.10;13.00;;;8.50;99.90;;;;;;5055389;28;20219;-79
2021/12/19 07:30:00;;;;;;;38.80;12.02;;;8.50;99.90;;;;;;5055480;28;20167;-80
2021/12/19 07:32:26;;;;;;;51.92;12.88;;;8.40;99.90;;;;;;5055107;28;20210;-78
2021/12/19 07:34:53;;;;;;;45.80;12.35;;;8.40;99.90;;;;;;5054823;28;20163;-81
2021/12/19 07:37:20;;;;;;;51.80;13.43;;;8.60;99.90;;;;;;5054958;28;20249;-81
2021/12/19 07:39:57;;;;;;;51.28;13.52;;;8.70;99.90;;;;;;5054887;28;20217;-79
2021/12/19 07:42:23;;;;;;;49.35;14.65;;;8.50;99.90;;;;;;5055132;28;20187;-81
2021/12/19 07:44:49;;;;;;;56.28;14.63;;;8.70;99.90;;;;;;5054847;28;20581;-79
2021/12/19 07:47:15;;;;;;;41.03;11.75;;;8.80;99.90;;;;;;5055030;28;20682;-79
2021/12/19 07:49:41;;;;;;;49.58;14.30;;;8.80;99.90;;;;;;5055441;28;20182;-80
2021/12/19 07:52:07;;;;;;;50.40;12.88;;;8.60;99.90;;;;;;5055427;28;20198;-79
2021/12/19 07:54:33;;;;;;;46.65;13.55;;;8.50;99.90;;;;;;5055169;28;20637;-78
2021/12/19 07:56:58;;;;;;;36.85;13.25;;;8.60;99.90;;;;;;5055443;28;20186;-77
2021/12/19 07:59:24;;;;;;;45.88;13.38;;;8.60;99.90;;;;;;5053472;28;20160;-78
2021/12/19 08:01:50;;;;;;;47.05;14.43;;;8.60;99.90;;;;;;5061958;28;20179;-80
2021/12/19 08:04:16;;;;;;;48.28;13.30;;;8.60;99.90;;;;;;5074087;28;20174;-80
2021/12/19 08:06:42;;;;;;;44.08;12.48;;;8.70;99.90;;;;;;5073513;28;20202;-80
2021/12/19 08:09:09;;;;;;;46.15;13.60;;;8.60;99.90;;;;;;5074450;28;20573;-79
2021/12/19 08:11:42;;;;;;;40.78;13.02;;;8.50;99.90;;;;;;5074698;28;20181;-78
2021/12/19 08:14:14;;;;;;;38.80;11.48;;;8.50;99.90;;;;;;5074331;28;20647;-80
2021/12/19 08:16:41;;;;;;;26.50;9.75;;;8.30;99.90;;;;;;5062919;28;20175;-81
2021/12/19 08:19:08;;;;;;;32.67;10.63;;;8.50;99.90;;;;;;5054401;28;20188;-79
2021/12/19 08:21:34;;;;;;;22.20;8.88;;;8.40;99.90;;;;;;5054606;28;20191;-79
2021/12/19 08:24:02;;;;;;;22.02;8.93;;;8.20;99.90;;;;;;5053234;28;20545;-77
2021/12/19 08:26:29;;;;;;;18.65;7.32;;;8.10;99.90;;;;;;5054225;28;20207;-80
2021/12/19 08:28:58;;;;;;;27.05;8.07;;;8.10;99.90;;;;;;5053044;28;20195;-79
2021/12/19 08:31:24;;;;;;;18.80;6.40;;;8.00;99.90;;;;;;5053592;28;20503;-79
2021/12/19 08:33:50;;;;;;;16.00;6.18;;;7.80;99.90;;;;;;5054427;28;20221;-79
2021/12/19 08:36:16;;;;;;;17.27;7.13;;;7.80;99.90;;;;;;5053889;28;20529;-78
2021/12/19 08:38:42;;;;;;;17.67;7.35;;;8.00;99.90;;;;;;5054241;28;20725;-78
2021/12/19 08:41:08;;;;;;;26.70;7.80;;;8.20;99.90;;;;;;5054292;28;20168;-78
2021/12/19 08:43:33;;;;;;;20.50;8.43;;;8.50;99.90;;;;;;5054307;28;20209;-80
2021/12/19 08:45:59;;;;;;;21.15;6.65;;;8.50;99.90;;;;;;5053903;28;20274;-82
2021/12/19 08:48:25;;;;;;;17.88;6.82;;;8.60;99.90;;;;;;5063608;28;20558;-79
2021/12/19 08:50:51;;;;;;;17.50;6.50;;;8.30;99.90;;;;;;5072176;28;20171;-78
2021/12/19 08:53:17;;;;;;;17.98;5.35;;;8.20;99.90;;;;;;5073408;28;20178;-79
2021/12/19 08:55:44;;;;;;;9.35;4.55;;;8.20;99.90;;;;;;5072969;28;20532;-80
2021/12/19 08:58:10;;;;;;;9.95;4.85;;;8.40;99.90;;;;;;5073423;28;20646;-79
2021/12/19 09:00:37;;;;;;;9.45;4.82;;;8.30;99.90;;;;;;5073674;28;20573;-79
2021/12/19 09:03:03;;;;;;;10.43;4.80;;;8.30;99.90;;;;;;5072561;28;20619;-79
2021/12/19 09:05:29;;;;;;;8.23;3.70;;;8.40;99.90;;;;;;5073516;28;20159;-78
2021/12/19 09:07:55;;;;;;;9.52;4.50;;;8.40;99.90;;;;;;5073165;28;20210;-78
2021/12/19 09:10:22;;;;;;;11.48;4.57;;;8.40;99.90;;;;;;5073739;28;20189;-79
2021/12/19 09:12:49;;;;;;;6.15;4.00;;;8.50;99.90;;;;;;5073636;28;20623;-78
2021/12/19 09:15:15;;;;;;;7.53;4.25;;;8.40;99.90;;;;;;5073412;28;20534;-79
2021/12/19 09:17:41;;;;;;;7.18;3.95;;;8.70;99.90;;;;;;5073663;28;20232;-80
2021/12/19 09:20:08;;;;;;;6.47;4.03;;;8.70;99.90;;;;;;5069429;28;20203;-79
2021/12/19 09:22:34;;;;;;;8.52;4.80;;;8.90;99.90;;;;;;5072605;28;20207;-80
2021/12/19 09:25:00;;;;;;;11.30;4.55;;;8.90;99.90;;;;;;5073406;28;20182;-80
2021/12/19 09:27:26;;;;;;;8.05;3.90;;;8.80;99.90;;;;;;5072169;28;20214;-79
2021/12/19 09:29:53;;;;;;;14.45;4.68;;;9.00;99.90;;;;;;5073910;28;20506;-80
2021/12/19 09:32:19;;;;;;;8.15;4.10;;;9.00;99.90;;;;;;5073188;28;20257;-80
2021/12/19 09:34:44;;;;;;;8.35;4.80;;;8.90;99.90;;;;;;5073514;28;20167;-80
2021/12/19 09:37:10;;;;;;;5.65;3.88;;;8.80;99.90;;;;;;5070556;28;20197;-81
2021/12/19 09:39:35;;;;;;;8.45;4.10;;;8.80;99.90;;;;;;5072150;28;20320;-78
2021/12/19 09:42:09;;;;;;;6.10;4.03;;;9.00;99.90;;;;;;5071890;28;20643;-78
2021/12/19 09:44:37;;;;;;;7.70;3.92;;;9.00;99.90;;;;;;5053080;28;20167;-79
2021/12/19 09:47:04;;;;;;;8.20;4.13;;;8.80;99.90;;;;;;5065587;28;20202;-78
2021/12/19 09:49:30;;;;;;;6.88;3.88;;;9.00;99.90;;;;;;5070908;28;20174;-78
2021/12/19 09:51:55;;;;;;;7.22;4.05;;;9.10;99.90;;;;;;5071711;28;20182;-78
2021/12/19 09:54:21;;;;;;;6.07;3.70;;;9.30;99.90;;;;;;5072189;28;20598;-79
2021/12/19 09:56:48;;;;;;;7.38;3.70;;;9.40;99.90;;;;;;5072022;28;20570;-77
2021/12/19 09:59:16;;;;;;;4.80;3.08;;;9.40;99.90;;;;;;5070304;28;20619;-78
2021/12/19 10:01:42;;;;;;;5.28;3.33;;;9.20;99.90;;;;;;5072474;28;20177;-78
2021/12/19 10:04:33;;;;;;;3.60;2.95;;;9.20;99.90;;;;;;5075111;28;20182;-80
2021/12/19 10:07:17;;;;;;;4.95;3.25;;;9.30;99.90;;;;;;5072318;28;20262;-78
2021/12/19 10:10:02;;;;;;;4.53;2.35;;;9.40;99.90;;;;;;5084941;28;20154;-77
2021/12/19 10:12:48;;;;;;;3.53;2.70;;;9.40;99.90;;;;;;5095356;28;20166;-78
2021/12/19 10:15:16;;;;;;;3.67;2.63;;;9.30;99.90;;;;;;5093693;28;20177;-79
2021/12/19 10:17:42;;;;;;;5.45;2.47;;;8.90;99.90;;;;;;5073354;28;20718;-78
2021/12/19 10:20:13;;;;;;;5.57;3.20;;;9.10;99.90;;;;;;5073113;28;20198;-79
2021/12/19 10:22:44;;;;;;;6.63;3.40;;;9.10;99.90;;;;;;5073115;28;20249;-81
2021/12/19 10:25:24;;;;;;;5.95;2.75;;;8.90;99.90;;;;;;5071237;28;20185;-84
2021/12/19 10:28:09;;;;;;;5.07;2.42;;;8.70;99.90;;;;;;5071946;28;20210;-78
2021/12/19 10:30:38;;;;;;;2.22;1.83;;;8.30;99.90;;;;;;5073161;28;20233;-78
2021/12/19 10:33:12;;;;;;;5.53;2.47;;;8.50;99.90;;;;;;5073092;28;20167;-77
2021/12/19 10:35:41;;;;;;;3.47;2.08;;;8.70;99.90;;;;;;5072609;28;20181;-81
2021/12/19 10:38:28;;;;;;;2.90;1.73;;;8.90;99.90;;;;;;5071987;28;20569;-78
2021/12/19 10:41:00;;;;;;;6.47;3.22;;;8.90;99.90;;;;;;5066326;28;20191;-78
2021/12/19 10:43:29;;;;;;;2.92;2.30;;;9.10;99.90;;;;;;5071945;28;20162;-79
2021/12/19 10:45:59;;;;;;;3.78;2.72;;;9.10;99.90;;;;;;5071735;28;20169;-79
2021/12/19 10:48:43;;;;;;;3.72;2.22;;;9.30;99.90;;;;;;5071527;28;20264;-79
2021/12/19 10:51:16;;;;;;;3.40;2.47;;;9.30;99.90;;;;;;5074660;28;20183;-78
2021/12/19 10:53:43;;;;;;;3.40;2.30;;;9.30;99.90;;;;;;5068953;28;20285;-79
2021/12/19 10:56:12;;;;;;;4.03;2.08;;;9.60;99.90;;;;;;5075174;28;20162;-77
2021/12/19 10:58:44;;;;;;;3.05;2.38;;;9.50;99.90;;;;;;5074387;28;20183;-78
2021/12/19 11:01:14;;;;;;;3.63;1.85;;;9.30;99.90;;;;;;5076426;28;20230;-82
2021/12/19 11:03:54;;;;;;;4.47;2.40;;;9.20;99.90;;;;;;5075538;28;20257;-82
2021/12/19 11:06:28;;;;;;;4.97;1.80;;;9.40;99.90;;;;;;5081491;28;20224;-79
2021/12/19 11:08:55;;;;;;;5.38;2.65;;;9.50;99.90;;;;;;5081824;28;20186;-81
2021/12/19 11:11:35;;;;;;;4.90;3.00;;;9.60;99.90;;;;;;5076171;28;20205;-79
2021/12/19 11:14:03;;;;;;;3.03;2.42;;;9.60;99.90;;;;;;5075705;28;20523;-79
2021/12/19 11:16:29;;;;;;;7.05;2.50;;;9.80;99.90;;;;;;5075656;28;20527;-79
2021/12/19 11:18:54;;;;;;;5.95;2.83;;;9.80;99.90;;;;;;5075435;28;20186;-80
2021/12/19 11:21:20;;;;;;;4.43;2.88;;;9.90;99.90;;;;;;5075584;28;20183;-80
2021/12/19 11:23:46;;;;;;;4.43;2.17;;;9.90;99.90;;;;;;5075445;28;20252;-80
2021/12/19 11:26:19;;;;;;;3.60;2.53;;;10.00;99.90;;;;;;5075834;28;20202;-81
2021/12/19 11:28:45;;;;;;;3.88;2.70;;;10.10;99.90;;;;;;5074580;28;20225;-78
2021/12/19 11:31:12;;;;;;;3.75;2.75;;;10.10;99.90;;;;;;5076950;28;20233;-77
2021/12/19 11:34:16;;;;;;;5.18;3.47;;;9.80;99.90;;;;;;5075241;28;20237;-77
2021/12/19 11:36:47;;;;;;;5.40;3.85;;;9.90;99.90;;;;;;5075570;28;20261;-78
2021/12/19 11:39:14;;;;;;;6.43;3.45;;;9.70;99.90;;;;;;5075479;28;20182;-79
2021/12/19 11:42:13;;;;;;;5.13;3.22;;;9.70;99.90;;;;;;5075002;28;20163;-77
2021/12/19 11:44:47;;;;;;;8.25;3.92;;;9.70;99.90;;;;;;5075117;28;20201;-76
2021/12/19 11:47:33;;;;;;;6.72;3.53;;;9.80;99.90;;;;;;5075133;28;20726;-87
2021/12/19 11:50:21;;;;;;;5.47;3.05;;;9.90;99.90;;;;;;5075492;28;20644;-75
2021/12/19 11:52:47;;;;;;;5.90;2.88;;;9.80;99.90;;;;;;5074799;28;20174;-79
2021/12/19 11:55:13;;;;;;;6.75;3.13;;;9.90;99.90;;;;;;5075162;28;20445;-78
2021/12/19 11:57:41;;;;;;;8.30;4.00;;;10.10;99.90;;;;;;5074583;28;20183;-78
2021/12/19 12:00:28;;;;;;;8.13;3.97;;;10.00;99.90;;;;;;5074805;28;20173;-78
2021/12/19 12:03:12;;;;;;;4.45;2.90;;;9.90;99.90;;;;;;5075067;28;20165;-78
2021/12/19 12:05:42;;;;;;;6.30;3.78;;;10.10;99.90;;;;;;5074543;28;20670;-78
2021/12/19 12:08:08;;;;;;;5.75;3.95;;;10.20;99.90;;;;;;5074480;28;20195;-80
2021/12/19 12:13:31;;;;;;;4.57;3.40;;;10.20;99.90;;;;;;5075278;28;20674;-78
2021/12/19 12:16:26;;;;;;;5.72;4.15;;;9.90;99.90;;;;;;5075007;28;20174;-79
2021/12/19 12:19:03;;;;;;;3.55;2.88;;;9.80;99.90;;;;;;5074457;28;20206;-78
2021/12/19 12:24:13;;;;;;;3.20;2.90;;;9.30;99.90;;;;;;5081829;28;20174;-78
2021/12/19 12:26:48;;;;;;;3.92;2.95;;;9.50;99.90;;;;;;5085889;28;20206;-79
2021/12/19 12:29:16;;;;;;;5.00;3.47;;;9.60;99.90;;;;;;5081426;28;20170;-80
2021/12/19 12:31:49;;;;;;;4.65;2.88;;;9.70;99.90;;;;;;5082092;28;20311;-78
2021/12/19 12:34:17;;;;;;;5.18;3.83;;;9.80;99.90;;;;;;5080246;28;20181;-80
2021/12/19 12:36:43;;;;;;;4.05;3.17;;;9.80;99.90;;;;;;5079998;28;20611;-80
2021/12/19 12:39:21;;;;;;;3.50;2.78;;;9.80;99.90;;;;;;5081293;28;20190;-79
2021/12/19 12:44:17;;;;;;;4.50;3.20;;;9.70;99.90;;;;;;5078802;28;20174;-80
2021/12/19 12:46:44;;;;;;;4.10;3.28;;;9.20;99.90;;;;;;5077728;28;20209;-81
2021/12/19 12:49:14;;;;;;;5.43;3.85;;;9.00;99.90;;;;;;5078761;28;20182;-81
2021/12/19 12:51:45;;;;;;;5.97;3.80;;;9.00;99.90;;;;;;5077847;28;20170;-80
2021/12/19 12:54:22;;;;;;;3.50;3.20;;;9.20;99.90;;;;;;5076987;28;20167;-81
2021/12/19 12:56:54;;;;;;;4.47;3.50;;;9.40;99.90;;;;;;5078078;28;20174;-81
2021/12/19 12:59:27;;;;;;;5.80;3.75;;;9.40;99.90;;;;;;5076539;28;20182;-81
2021/12/19 13:02:06;;;;;;;5.40;2.58;;;9.40;99.90;;;;;;5080000;28;20182;-80
2021/12/19 13:04:32;;;;;;;3.67;2.92;;;9.40;99.90;;;;;;5081407;28;20174;-81
2021/12/19 13:07:13;;;;;;;5.43;3.42;;;9.30;99.90;;;;;;5082503;28;20228;-80
2021/12/19 13:09:41;;;;;;;6.50;3.70;;;9.10;99.90;;;;;;5080402;28;20204;-80
2021/12/19 13:12:17;;;;;;;7.88;3.72;;;8.80;99.90;;;;;;5080216;28;20175;-81
2021/12/19 13:14:51;;;;;;;5.03;3.75;;;8.80;99.90;;;;;;5080046;28;20263;-81
2021/12/19 13:17:33;;;;;;;7.43;3.67;;;8.90;99.90;;;;;;5080908;28;20197;-80
2021/12/19 13:19:58;;;;;;;6.93;4.47;;;8.90;99.90;;;;;;5083661;28;20174;-80
2021/12/19 13:22:34;;;;;;;3.40;3.08;;;9.00;99.90;;;;;;5097628;28;20230;-80
2021/12/19 13:25:06;;;;;;;4.20;3.80;;;9.10;99.90;;;;;;5076895;28;20239;-80
2021/12/19 13:27:34;;;;;;;5.22;4.22;;;9.20;99.90;;;;;;5074895;28;20209;-80
2021/12/19 13:30:13;;;;;;;4.53;4.13;;;9.40;99.90;;;;;;5074117;28;20166;-80
2021/12/19 13:32:46;;;;;;;3.60;3.30;;;9.30;99.90;;;;;;5073054;28;20710;-80
2021/12/19 13:35:23;;;;;;;4.20;3.00;;;9.50;99.90;;;;;;5073095;28;20155;-80
2021/12/19 13:38:08;;;;;;;4.97;3.42;;;9.50;99.90;;;;;;5073779;28;20190;-80
2021/12/19 13:40:41;;;;;;;3.83;3.50;;;9.60;99.90;;;;;;5072030;28;20210;-80
2021/12/19 13:43:12;;;;;;;3.70;3.30;;;9.70;99.90;;;;;;5072877;28;20195;-80
2021/12/19 13:45:43;;;;;;;3.15;2.85;;;9.70;99.90;;;;;;5073190;28;20631;-80
2021/12/19 13:48:10;;;;;;;3.17;2.42;;;9.90;99.90;;;;;;5072962;28;20205;-79
2021/12/19 13:50:43;;;;;;;2.70;2.50;;;9.60;99.90;;;;;;5073355;28;20540;-80
2021/12/19 13:53:11;;;;;;;3.00;2.72;;;9.70;99.90;;;;;;5071764;28;20704;-80
2021/12/19 13:55:41;;;;;;;4.35;3.05;;;9.70;99.90;;;;;;5073257;28;20166;-80
2021/12/19 13:58:08;;;;;;;2.90;2.58;;;9.80;99.90;;;;;;5071630;28;20567;-80
2021/12/19 14:00:37;;;;;;;2.50;2.30;;;9.90;99.90;;;;;;5072885;28;20220;-80